HBE weather

Borg El Arab International Airport
Alexandria, Alexandria Governorate, Egypt

Public forecast

Using degrees Celsius for public forecast. Weather courtesy of forecast.io.

Current aviation weather report (METAR) for Borg El Arab International Airport

Retrieved 2019/10/14 14:00 UTC (57 minutes ago):

HEBA 141400Z 34011KT CAVOK 28/18 Q1014 NOSIG

Aviation forecast (TAF) for Borg El Arab International Airport

Retrieved 2019/10/14 12:15 UTC (3 hours ago):

TAF HEBA 141100Z 1412/1518 33012KT 9999 FEW020